createdAt,value
2022-11-05T00:03:25.417Z,99440.47
2022-11-05T00:07:59.611Z,99445.44
2022-11-05T00:12:26.522Z,99456.25
2022-11-05T00:16:46.770Z,99454.44
2022-11-05T00:20:48.800Z,99462.75
2022-11-05T00:25:09.271Z,99451.78
2022-11-05T00:29:11.089Z,99454.16
2022-11-05T00:33:13.051Z,99475.63
2022-11-05T00:37:16.063Z,99458.84
2022-11-05T00:41:17.887Z,99459.31
2022-11-05T00:45:20.196Z,99465.22
2022-11-05T00:49:30.653Z,99480.25
2022-11-05T00:53:32.727Z,99484.78
2022-11-05T00:57:34.528Z,99480.56
2022-11-05T01:01:36.520Z,99494.91
2022-11-05T01:05:42.824Z,99492.75
2022-11-05T01:09:44.587Z,99506.69
2022-11-05T01:13:46.403Z,99506.00
2022-11-05T01:17:48.294Z,99501.44
2022-11-05T01:21:50.143Z,99499.72
2022-11-05T01:25:52.016Z,99505.00
2022-11-05T01:29:53.866Z,99509.94
2022-11-05T01:33:55.674Z,99522.16
2022-11-05T01:37:57.515Z,99530.13
2022-11-05T01:41:59.560Z,99545.16
2022-11-05T01:46:01.443Z,99548.41
2022-11-05T01:50:29.207Z,99555.44
2022-11-05T01:54:31.848Z,99561.72
2022-11-05T01:58:54.446Z,99569.50
2022-11-05T02:02:56.324Z,99570.16
2022-11-05T02:06:58.184Z,99571.59
2022-11-05T02:11:00.169Z,99575.69
2022-11-05T02:15:01.961Z,99572.41
2022-11-05T02:19:40.558Z,99567.84
2022-11-05T02:24:17.506Z,99572.31
2022-11-05T02:29:04.091Z,99575.00
2022-11-05T02:33:26.825Z,99593.34
2022-11-05T02:37:52.531Z,99594.78
2022-11-05T02:42:24.601Z,99601.25
2022-11-05T02:46:56.818Z,99593.41
2022-11-05T02:51:07.449Z,99592.44
2022-11-05T02:55:18.127Z,99598.63
2022-11-05T02:59:19.995Z,99594.63
2022-11-05T03:03:43.297Z,99613.03
2022-11-05T03:07:51.280Z,99617.75
2022-11-05T03:12:21.582Z,99632.47
2022-11-05T03:16:43.417Z,99633.63
2022-11-05T03:21:19.563Z,99624.69
2022-11-05T03:25:22.989Z,99641.31
2022-11-05T03:29:27.396Z,99635.31
2022-11-05T03:33:30.118Z,99632.69
2022-11-05T03:37:34.322Z,99633.22
2022-11-05T03:41:36.173Z,99625.75
2022-11-05T03:45:42.025Z,99630.19
2022-11-05T03:50:15.306Z,99643.72
2022-11-05T03:54:17.158Z,99647.19
2022-11-05T03:58:20.623Z,99662.72
2022-11-05T04:02:24.101Z,99648.38
2022-11-05T04:06:44.962Z,99658.13
2022-11-05T04:11:05.564Z,99666.59
2022-11-05T04:15:08.417Z,99676.91
2022-11-05T04:19:10.146Z,99680.75
2022-11-05T04:23:30.144Z,99694.84
2022-11-05T04:27:31.938Z,99708.56
2022-11-05T04:31:33.744Z,99695.06
2022-11-05T04:35:37.484Z,99707.16
2022-11-05T04:39:39.263Z,99715.75
2022-11-05T04:43:41.171Z,99728.81
2022-11-05T04:47:43.072Z,99711.88
2022-11-05T04:51:44.929Z,99719.78
2022-11-05T04:55:46.838Z,99715.38
2022-11-05T04:59:49.544Z,99724.31
2022-11-05T05:03:51.979Z,99723.19
2022-11-05T05:07:53.768Z,99724.53
2022-11-05T05:11:55.616Z,99738.41
2022-11-05T05:15:57.441Z,99744.16
2022-11-05T05:20:17.478Z,99735.53
2022-11-05T05:24:21.252Z,99744.25
2022-11-05T05:28:23.030Z,99755.28
2022-11-05T05:32:25.426Z,99766.50
2022-11-05T05:36:27.238Z,99765.59
2022-11-05T05:40:29.142Z,99760.38
2022-11-05T05:44:30.944Z,99769.63
2022-11-05T05:48:32.890Z,99773.22
2022-11-05T05:52:34.803Z,99773.22
2022-11-05T05:56:36.800Z,99774.97
2022-11-05T06:00:38.587Z,99780.97
2022-11-05T06:04:40.385Z,99794.63
2022-11-05T06:08:45.429Z,99801.50
2022-11-05T06:12:47.487Z,99782.00
2022-11-05T06:16:49.601Z,99791.25
2022-11-05T06:20:56.736Z,99797.44
2022-11-05T06:25:21.397Z,99812.97
2022-11-05T06:29:27.175Z,99804.31
2022-11-05T06:34:25.094Z,99801.66
2022-11-05T06:55:21.321Z,99860.47
2022-11-05T07:05:50.237Z,99865.50
2022-11-05T07:10:04.459Z,99865.56
2022-11-05T07:14:06.490Z,99879.25
2022-11-05T07:25:02.524Z,99903.25
2022-11-05T07:36:24.095Z,99923.41
2022-11-05T07:57:47.523Z,99940.16
2022-11-05T08:01:49.810Z,99949.13
2022-11-05T08:06:01.516Z,99945.84
2022-11-05T08:10:06.389Z,99966.75
2022-11-05T08:14:13.680Z,99954.91
2022-11-05T08:19:26.036Z,99950.97
2022-11-05T08:23:30.032Z,99955.72
2022-11-05T08:27:31.934Z,99956.34
2022-11-05T08:31:37.176Z,99962.28
2022-11-05T08:35:39.840Z,99961.16
2022-11-05T08:39:41.711Z,99971.69
2022-11-05T08:43:49.547Z,99974.94
2022-11-05T08:47:51.687Z,99980.75
2022-11-05T08:51:53.507Z,99979.13
2022-11-05T08:55:58.969Z,99979.97
2022-11-05T09:00:00.954Z,99996.00
2022-11-05T09:05:47.769Z,99990.44
2022-11-05T09:10:58.661Z,99991.06
2022-11-05T09:26:25.888Z,99991.69
2022-11-05T09:30:34.384Z,99994.25
2022-11-05T09:40:42.567Z,99999.75
2022-11-05T09:44:59.807Z,99989.59
2022-11-05T09:49:07.381Z,99991.13
2022-11-05T09:53:20.535Z,100004.34
2022-11-05T09:57:41.308Z,100016.19
2022-11-05T10:02:17.985Z,100005.31
2022-11-05T10:06:25.629Z,100014.66
2022-11-05T10:10:48.018Z,100017.59
2022-11-05T10:15:25.081Z,100018.81
2022-11-05T10:19:36.459Z,100023.59
2022-11-05T10:23:44.800Z,100033.09
2022-11-05T10:27:53.243Z,100033.97
2022-11-05T10:31:58.952Z,100023.59
2022-11-05T10:36:07.075Z,100040.53
2022-11-05T10:41:12.153Z,100037.13
2022-11-05T10:45:31.962Z,100027.59
2022-11-05T10:49:59.754Z,100025.97
2022-11-05T10:54:12.171Z,100031.19
2022-11-05T10:58:33.438Z,100037.97
2022-11-05T11:02:38.378Z,100030.75
2022-11-05T11:07:01.146Z,100032.84
2022-11-05T11:11:10.803Z,100045.13
2022-11-05T11:15:16.724Z,100050.47
2022-11-05T11:19:38.076Z,100050.47
2022-11-05T11:23:51.966Z,100055.13
2022-11-05T11:28:03.348Z,100052.53
2022-11-05T11:32:12.992Z,100050.09
2022-11-05T11:36:22.360Z,100045.16
2022-11-05T11:40:43.197Z,100050.41
2022-11-05T11:45:13.597Z,100056.28
2022-11-05T11:52:24.981Z,100054.84
2022-11-05T11:55:31.378Z,100053.16
2022-11-05T12:00:12.892Z,100059.09
2022-11-05T12:04:56.578Z,100051.22
2022-11-05T12:26:23.340Z,100038.47
2022-11-05T12:30:25.463Z,100045.50
2022-11-05T12:35:08.045Z,100053.91
2022-11-05T12:39:59.516Z,100057.78
2022-11-05T12:44:42.904Z,100056.63
2022-11-05T12:49:41.015Z,100074.06
2022-11-05T13:00:25.058Z,100064.88
2022-11-05T13:05:34.971Z,100068.94
2022-11-05T13:55:17.087Z,100104.16
2022-11-05T14:17:27.649Z,100121.22
2022-11-05T16:21:25.062Z,100204.38
2022-11-05T17:22:03.583Z,100254.84
2022-11-05T17:27:27.388Z,100274.88
2022-11-05T20:44:46.366Z,100414.22
2022-11-05T21:04:55.510Z,100422.81
2022-11-05T21:34:53.376Z,100431.66
2022-11-05T21:38:56.099Z,100422.53
2022-11-05T21:42:58.121Z,100430.44
2022-11-05T21:47:00.000Z,100433.13
2022-11-05T21:51:20.618Z,100441.34
2022-11-05T21:55:43.067Z,100450.25
2022-11-05T21:59:48.447Z,100430.34
2022-11-05T22:03:50.827Z,100430.69
2022-11-05T22:07:52.722Z,100433.34
2022-11-05T22:11:58.369Z,100434.59
2022-11-05T22:21:00.573Z,100421.03
2022-11-05T23:23:35.486Z,100448.50
2022-11-05T23:27:17.598Z,100439.72
2022-11-05T23:31:40.069Z,100434.88
2022-11-05T23:36:14.040Z,100441.41
2022-11-05T23:40:30.212Z,100437.38
2022-11-05T23:44:53.353Z,100441.72
2022-11-05T23:49:13.342Z,100439.28
2022-11-05T23:53:20.166Z,100442.53
2022-11-05T23:57:30.940Z,100457.44
